createdAt,value
2019-03-05T00:01:59.021Z,84.74
2019-03-05T00:04:28.459Z,84.74
2019-03-05T00:06:58.048Z,84.37
2019-03-05T00:09:27.407Z,84.37
2019-03-05T00:12:07.260Z,84.34
2019-03-05T00:14:36.917Z,84.34
2019-03-05T00:17:06.268Z,84.64
2019-03-05T00:19:35.944Z,86.12
2019-03-05T00:22:05.359Z,86.12
2019-03-05T00:25:13.733Z,87.59
2019-03-05T00:27:55.153Z,89.56
2019-03-05T00:34:37.875Z,90.21
2019-03-05T00:41:06.274Z,91.43
2019-03-05T00:47:49.155Z,91.97
2019-03-05T00:54:31.100Z,92.28
2019-03-05T00:57:31.221Z,91.93
2019-03-05T01:00:39.284Z,91.18
2019-03-05T01:03:47.361Z,90.74
2019-03-05T01:06:36.440Z,90.59
2019-03-05T01:09:37.068Z,90.53
2019-03-05T01:17:42.718Z,90.73
2019-03-05T01:23:46.283Z,90.56
2019-03-05T01:26:16.012Z,90.25
2019-03-05T01:28:45.353Z,90.25
2019-03-05T01:37:10.419Z,89.78
2019-03-05T01:39:58.985Z,89.71
2019-03-05T01:42:28.626Z,89.46
2019-03-05T01:45:09.594Z,89.19
2019-03-05T01:47:51.141Z,89.13
2019-03-05T01:50:20.563Z,89.13
2019-03-05T01:52:49.919Z,89.05
2019-03-05T01:55:20.893Z,88.85
2019-03-05T01:58:10.022Z,87.86
2019-03-05T02:00:39.379Z,87.86
2019-03-05T02:03:08.728Z,87.76
2019-03-05T02:05:38.395Z,87.57
2019-03-05T02:08:07.746Z,86.86
2019-03-05T02:10:37.391Z,86.71
2019-03-05T02:13:06.735Z,86.46
2019-03-05T02:15:46.523Z,86.15
2019-03-05T02:18:35.221Z,86.15
2019-03-05T02:21:04.863Z,85.71
2019-03-05T02:27:33.211Z,85.51
2019-03-05T02:30:33.750Z,85.43
2019-03-05T02:33:42.045Z,85.22
2019-03-05T02:40:11.475Z,85.10
2019-03-05T02:43:19.552Z,84.79
2019-03-05T02:46:27.631Z,84.28
2019-03-05T02:49:35.701Z,83.86
2019-03-05T02:52:17.013Z,83.50
2019-03-05T02:54:58.941Z,82.64
2019-03-05T02:57:27.825Z,82.64
2019-03-05T02:59:57.477Z,82.09
2019-03-05T03:05:44.006Z,80.01
2019-03-05T03:08:13.652Z,80.01
2019-03-05T03:10:43.014Z,79.37
2019-03-05T03:13:12.841Z,79.11
2019-03-05T03:15:42.221Z,78.61
2019-03-05T03:18:11.617Z,78.88
2019-03-05T03:20:40.972Z,79.14
2019-03-05T03:23:11.012Z,79.65
2019-03-05T03:28:53.842Z,79.84
2019-03-05T03:31:23.804Z,80.09
2019-03-05T03:33:53.164Z,80.68
2019-03-05T03:36:34.952Z,79.98
2019-03-05T03:42:24.146Z,81.17
2019-03-05T03:44:53.684Z,81.77
2019-03-05T03:47:23.020Z,81.77
2019-03-05T03:49:52.385Z,82.10
2019-03-05T03:52:22.020Z,82.30
2019-03-05T03:54:51.674Z,82.77
2019-03-05T03:57:21.269Z,82.80
2019-03-05T04:00:29.453Z,83.15
2019-03-05T04:02:58.793Z,83.15
2019-03-05T04:05:28.451Z,82.99
2019-03-05T04:07:58.191Z,82.90
2019-03-05T04:10:29.234Z,82.90
2019-03-05T04:12:59.224Z,82.92
2019-03-05T04:15:28.751Z,82.92
2019-03-05T04:17:58.095Z,83.12
2019-03-05T04:23:23.954Z,83.20
2019-03-05T04:25:53.316Z,83.50
2019-03-05T04:28:34.231Z,83.21
2019-03-05T04:31:23.256Z,83.28
2019-03-05T04:33:52.822Z,83.60
2019-03-05T04:36:22.170Z,83.60
2019-03-05T04:38:51.508Z,83.65
2019-03-05T04:41:21.020Z,83.83
2019-03-05T04:43:50.634Z,84.04
2019-03-05T04:46:39.417Z,84.38
2019-03-05T04:49:28.035Z,84.43
2019-03-05T04:54:52.917Z,83.80
2019-03-05T04:57:22.571Z,83.80
2019-03-05T04:59:52.050Z,83.78
2019-03-05T05:02:21.415Z,83.78
2019-03-05T05:04:51.013Z,83.78
2019-03-05T05:07:20.427Z,83.35
2019-03-05T05:09:49.928Z,83.26
2019-03-05T05:12:19.312Z,82.50
2019-03-05T05:14:48.661Z,82.61
2019-03-05T05:17:18.529Z,82.26
2019-03-05T05:19:48.024Z,81.89
2019-03-05T05:22:17.390Z,82.36
2019-03-05T05:24:47.012Z,81.90
2019-03-05T05:27:18.279Z,81.91
2019-03-05T05:29:47.636Z,82.27
2019-03-05T05:32:17.615Z,82.52
2019-03-05T05:34:47.017Z,82.75
2019-03-05T05:37:27.373Z,83.06
2019-03-05T05:40:26.525Z,83.15
2019-03-05T05:42:56.169Z,84.05
2019-03-05T05:48:46.296Z,83.92
2019-03-05T05:51:15.664Z,84.40
2019-03-05T05:53:45.222Z,84.61
2019-03-05T05:56:14.582Z,84.59
2019-03-05T05:58:44.151Z,84.46
2019-03-05T06:03:54.148Z,84.37
2019-03-05T06:06:23.496Z,85.38
2019-03-05T06:08:52.861Z,85.70
2019-03-05T06:11:22.519Z,85.68
2019-03-05T06:13:52.232Z,86.18
2019-03-05T06:16:21.921Z,86.18
2019-03-05T06:18:51.287Z,86.40
2019-03-05T06:21:20.935Z,86.77
2019-03-05T06:23:50.370Z,87.61
2019-03-05T06:26:19.718Z,87.73
2019-03-05T06:28:49.339Z,88.03
2019-03-05T06:31:18.686Z,88.51
2019-03-05T06:33:48.263Z,88.05
2019-03-05T06:36:17.612Z,87.77
2019-03-05T06:38:46.975Z,87.57
2019-03-05T06:41:16.532Z,87.12
2019-03-05T06:43:45.899Z,86.76
2019-03-05T06:46:15.561Z,86.08
2019-03-05T06:48:46.536Z,85.61
2019-03-05T06:51:17.892Z,85.84
2019-03-05T06:53:47.419Z,85.11
2019-03-05T06:56:16.768Z,84.00
2019-03-05T06:58:46.709Z,83.79
2019-03-05T07:01:28.316Z,83.58
2019-03-05T07:03:57.672Z,83.58
2019-03-05T07:06:46.647Z,83.13
2019-03-05T07:13:21.604Z,83.08
2019-03-05T07:19:11.861Z,83.26
2019-03-05T07:21:53.363Z,83.45
2019-03-05T07:27:43.507Z,83.50
2019-03-05T07:33:59.556Z,83.26
2019-03-05T07:36:28.908Z,83.26
2019-03-05T07:38:58.602Z,83.22
2019-03-05T07:41:27.945Z,82.95
2019-03-05T07:44:09.560Z,83.20
2019-03-05T07:53:41.725Z,81.76
2019-03-05T07:56:11.883Z,83.69
2019-03-05T07:58:41.539Z,85.32
2019-03-05T08:01:21.792Z,86.33
2019-03-05T08:03:48.976Z,86.69
2019-03-05T08:06:18.625Z,87.37
2019-03-05T08:09:26.719Z,87.44
2019-03-05T08:15:46.645Z,86.78
2019-03-05T08:18:16.005Z,86.15
2019-03-05T08:20:57.881Z,85.92
2019-03-05T08:23:27.247Z,85.92
2019-03-05T08:26:16.159Z,85.26
2019-03-05T08:28:57.982Z,84.82
2019-03-05T08:31:27.332Z,84.82
2019-03-05T08:33:56.695Z,84.14
2019-03-05T08:36:26.284Z,83.71
2019-03-05T08:39:15.157Z,84.23
2019-03-05T08:41:44.800Z,84.23
2019-03-05T08:44:24.177Z,86.79
2019-03-05T08:46:53.581Z,86.79
2019-03-05T08:52:17.949Z,87.59
2019-03-05T08:54:47.310Z,89.48
2019-03-05T08:57:16.954Z,90.42
2019-03-05T08:59:46.329Z,90.65
2019-03-05T09:02:16.233Z,90.50
2019-03-05T09:04:45.595Z,90.14
2019-03-05T09:07:15.349Z,89.70
2019-03-05T09:09:46.644Z,88.33
2019-03-05T09:12:16.195Z,88.33
2019-03-05T09:14:45.846Z,86.42
2019-03-05T09:17:15.476Z,84.84
2019-03-05T09:19:57.252Z,83.25
2019-03-05T09:22:27.573Z,83.25
2019-03-05T09:24:57.066Z,82.01
2019-03-05T09:27:26.406Z,82.01
2019-03-05T09:29:55.989Z,83.14
2019-03-05T09:32:25.627Z,83.14
2019-03-05T09:35:25.938Z,83.71
2019-03-05T09:37:55.284Z,83.71
2019-03-05T09:43:59.242Z,80.99
2019-03-05T09:46:29.176Z,81.58
2019-03-05T09:48:58.567Z,80.83
2019-03-05T09:51:29.528Z,80.52
2019-03-05T09:54:11.262Z,79.84
2019-03-05T09:56:40.897Z,79.84
2019-03-05T10:01:58.987Z,80.31
2019-03-05T10:04:28.646Z,81.41
2019-03-05T10:07:18.331Z,82.67
2019-03-05T10:09:39.172Z,80.47
2019-03-05T10:12:08.510Z,80.47
2019-03-05T10:14:50.168Z,81.92
2019-03-05T10:17:19.514Z,81.92
2019-03-05T10:19:49.388Z,85.56
2019-03-05T10:22:20.401Z,85.56
2019-03-05T10:28:08.728Z,88.37
2019-03-05T10:34:12.524Z,84.77
2019-03-05T10:36:42.471Z,81.62
2019-03-05T10:39:31.951Z,80.96
2019-03-05T10:42:01.414Z,77.79
2019-03-05T10:44:30.780Z,77.75
2019-03-05T10:47:00.228Z,75.58
2019-03-05T10:49:29.888Z,74.85
2019-03-05T10:51:59.321Z,77.04
2019-03-05T10:54:28.944Z,76.27
2019-03-05T10:57:19.560Z,74.17
2019-03-05T10:59:49.232Z,74.17
2019-03-05T11:02:49.225Z,74.92
2019-03-05T11:05:18.632Z,73.55
2019-03-05T11:07:48.265Z,73.53
2019-03-05T11:13:52.437Z,72.71
2019-03-05T11:16:30.487Z,71.33
2019-03-05T11:19:23.819Z,71.20
2019-03-05T11:21:53.825Z,68.87
2019-03-05T11:24:23.413Z,69.60
2019-03-05T11:26:52.757Z,70.58
2019-03-05T11:29:22.466Z,71.30
2019-03-05T11:31:51.832Z,70.76
2019-03-05T11:34:21.493Z,71.32
2019-03-05T11:39:51.004Z,71.75
2019-03-05T11:42:20.888Z,72.43
2019-03-05T11:45:30.204Z,71.96
2019-03-05T11:47:59.609Z,72.09
2019-03-05T11:50:31.152Z,73.29
2019-03-05T11:53:00.603Z,72.63
2019-03-05T11:58:50.919Z,71.37
2019-03-05T12:04:16.116Z,72.37
2019-03-05T12:06:45.556Z,72.51
2019-03-05T12:09:14.973Z,71.19
2019-03-05T12:11:44.535Z,71.43
2019-03-05T12:14:14.174Z,71.33
2019-03-05T12:16:43.837Z,71.33
2019-03-05T12:19:13.276Z,70.20
2019-03-05T12:21:42.864Z,70.75
2019-03-05T12:24:14.120Z,71.15
2019-03-05T12:26:43.760Z,71.29
2019-03-05T12:29:13.136Z,70.70
2019-03-05T12:31:42.785Z,71.37
2019-03-05T12:34:13.212Z,70.72
2019-03-05T12:36:42.859Z,71.33
2019-03-05T12:42:33.775Z,71.69
2019-03-05T12:48:40.259Z,71.50
2019-03-05T12:51:14.187Z,70.93
2019-03-05T12:53:43.829Z,69.62
2019-03-05T12:56:23.453Z,69.45
2019-03-05T12:58:50.228Z,70.12
2019-03-05T13:01:19.877Z,71.18
2019-03-05T13:03:49.237Z,71.00
2019-03-05T13:06:19.082Z,71.83
2019-03-05T13:08:48.446Z,72.77
2019-03-05T13:11:18.364Z,73.71
2019-03-05T13:13:51.376Z,73.71
2019-03-05T13:16:27.817Z,74.38
2019-03-05T13:18:58.329Z,72.20
2019-03-05T13:21:48.485Z,71.98
2019-03-05T13:24:27.155Z,71.61
2019-03-05T13:26:56.531Z,69.45
2019-03-05T13:29:26.200Z,69.45
2019-03-05T13:31:55.555Z,68.31
2019-03-05T13:34:25.271Z,68.01
2019-03-05T13:36:54.953Z,68.69
2019-03-05T13:39:24.466Z,69.24
2019-03-05T13:41:55.006Z,69.25
2019-03-05T13:44:34.267Z,68.16
2019-03-05T13:47:14.673Z,68.68
2019-03-05T13:50:15.201Z,69.50
2019-03-05T13:53:25.142Z,69.67
2019-03-05T13:59:48.038Z,71.43
2019-03-05T14:02:53.015Z,71.24
2019-03-05T14:05:58.341Z,70.85
2019-03-05T14:09:08.982Z,67.90
2019-03-05T14:18:25.231Z,66.19
2019-03-05T14:20:55.258Z,64.75
2019-03-05T14:23:44.542Z,65.83
2019-03-05T14:26:14.266Z,64.07
2019-03-05T14:28:43.604Z,62.54
2019-03-05T14:31:13.552Z,62.54
2019-03-05T14:33:43.202Z,60.70
2019-03-05T14:36:13.866Z,60.12
2019-03-05T14:38:43.241Z,59.55
2019-03-05T14:41:13.459Z,59.81
2019-03-05T14:43:43.105Z,60.65
2019-03-05T14:46:13.566Z,60.79
2019-03-05T14:48:43.131Z,61.44
2019-03-05T14:51:13.577Z,62.05
2019-03-05T14:53:43.191Z,60.41
2019-03-05T14:56:13.535Z,60.69
2019-03-05T14:58:43.249Z,60.90
2019-03-05T15:01:13.661Z,61.24
2019-03-05T15:03:43.304Z,61.74
2019-03-05T15:06:13.704Z,62.24
2019-03-05T15:08:43.318Z,60.83
2019-03-05T15:11:33.000Z,60.80
2019-03-05T15:14:02.588Z,60.80
2019-03-05T15:16:32.375Z,61.53
2019-03-05T15:19:01.741Z,62.02
2019-03-05T15:21:31.276Z,62.95
2019-03-05T15:24:00.635Z,63.16
2019-03-05T15:26:30.923Z,63.25
2019-03-05T15:29:00.483Z,63.11
2019-03-05T15:31:29.876Z,63.26
2019-03-05T15:33:59.660Z,61.01
2019-03-05T15:36:29.350Z,61.49
2019-03-05T15:38:58.725Z,61.01
2019-03-05T15:41:28.665Z,60.10
2019-03-05T15:43:58.001Z,61.06
2019-03-05T15:46:27.692Z,61.08
2019-03-05T15:48:57.366Z,60.87
2019-03-05T15:51:27.005Z,61.15
2019-03-05T15:53:56.458Z,61.37
2019-03-05T15:56:26.158Z,61.90
2019-03-05T15:58:55.616Z,62.65
2019-03-05T16:01:25.051Z,62.74
2019-03-05T16:03:54.408Z,62.36
2019-03-05T16:06:23.765Z,62.13
2019-03-05T16:08:53.433Z,62.72
2019-03-05T16:11:23.118Z,63.17
2019-03-05T16:13:56.561Z,63.96
2019-03-05T16:16:29.483Z,64.35
2019-03-05T16:18:58.917Z,64.51
2019-03-05T16:21:28.588Z,63.95
2019-03-05T16:24:01.746Z,64.39
2019-03-05T16:26:56.770Z,64.65
2019-03-05T16:29:55.783Z,64.25
2019-03-05T16:32:48.833Z,64.25
2019-03-05T16:35:37.646Z,64.12
2019-03-05T16:44:21.864Z,64.05
2019-03-05T16:47:10.663Z,64.27
2019-03-05T16:49:59.153Z,64.68
2019-03-05T17:01:56.259Z,65.03
2019-03-05T17:04:45.057Z,65.57
2019-03-05T17:07:33.921Z,65.54
2019-03-05T17:12:41.820Z,66.09
2019-03-05T17:15:11.245Z,66.40
2019-03-05T17:17:40.731Z,66.57
2019-03-05T17:23:30.837Z,66.37
2019-03-05T17:26:00.265Z,66.40
2019-03-05T17:28:30.297Z,66.57
2019-03-05T17:31:20.993Z,66.64
2019-03-05T17:33:50.352Z,66.77
2019-03-05T17:36:20.039Z,66.87
2019-03-05T17:38:49.855Z,66.84
2019-03-05T17:41:19.281Z,66.78
2019-03-05T17:43:59.749Z,66.98
2019-03-05T17:46:29.093Z,67.09
2019-03-05T17:48:58.821Z,67.17
2019-03-05T17:51:28.188Z,67.45
2019-03-05T17:53:57.787Z,67.61
2019-03-05T17:56:27.167Z,67.78
2019-03-05T17:58:56.854Z,67.78
2019-03-05T18:01:45.880Z,68.11
2019-03-05T18:04:15.594Z,68.11
2019-03-05T18:06:54.821Z,68.71
2019-03-05T18:09:24.190Z,68.71
2019-03-05T18:11:54.327Z,68.66
2019-03-05T18:14:25.483Z,68.70
2019-03-05T18:16:55.315Z,69.05
2019-03-05T18:19:25.143Z,69.05
2019-03-05T18:21:54.577Z,69.12
2019-03-05T18:24:24.088Z,69.13
2019-03-05T18:26:53.529Z,69.14
2019-03-05T18:29:23.246Z,69.29
2019-03-05T18:31:53.116Z,69.73
2019-03-05T18:34:22.435Z,69.73
2019-03-05T18:37:04.367Z,69.45
2019-03-05T18:39:34.092Z,70.07
2019-03-05T18:42:03.516Z,70.07
2019-03-05T18:44:33.069Z,70.03
2019-03-05T18:47:02.503Z,70.30
2019-03-05T18:49:33.715Z,70.52
2019-03-05T18:52:04.773Z,70.90
2019-03-05T18:54:34.192Z,71.20
2019-03-05T18:57:03.550Z,71.20
2019-03-05T18:59:33.056Z,71.30
2019-03-05T19:02:10.118Z,71.69
2019-03-05T19:04:39.482Z,71.69
2019-03-05T19:07:09.148Z,71.53
2019-03-05T19:09:38.497Z,72.10
2019-03-05T19:12:18.864Z,72.37
2019-03-05T19:15:21.359Z,72.66
2019-03-05T19:17:51.324Z,72.66
2019-03-05T19:23:41.559Z,72.85
2019-03-05T19:26:11.344Z,73.15
2019-03-05T19:28:40.724Z,73.32
2019-03-05T19:31:49.009Z,73.84
2019-03-05T19:34:18.477Z,73.84
2019-03-05T19:36:48.131Z,73.97
2019-03-05T19:39:17.811Z,74.26
2019-03-05T19:41:55.823Z,74.54
2019-03-05T19:44:24.328Z,74.54
2019-03-05T19:46:53.967Z,74.74
2019-03-05T19:49:23.719Z,75.02
2019-03-05T19:51:53.253Z,75.06
2019-03-05T19:54:22.621Z,75.24
2019-03-05T19:56:52.277Z,75.49
2019-03-05T19:59:21.631Z,76.14
2019-03-05T20:02:10.695Z,76.58
2019-03-05T20:04:40.311Z,76.58
2019-03-05T20:07:09.692Z,78.43
2019-03-05T20:09:51.347Z,77.34
2019-03-05T20:12:21.010Z,77.34
2019-03-05T20:14:50.377Z,75.49
2019-03-05T20:17:19.779Z,75.45
2019-03-05T20:20:19.785Z,75.41
2019-03-05T20:22:49.456Z,75.41
2019-03-05T20:29:06.978Z,76.14
2019-03-05T20:31:36.379Z,76.62
2019-03-05T20:34:05.743Z,76.62
2019-03-05T20:36:35.381Z,76.44
2019-03-05T20:39:35.215Z,76.58
2019-03-05T20:42:24.279Z,76.38
2019-03-05T20:44:53.884Z,76.69
2019-03-05T20:47:23.835Z,76.40
2019-03-05T20:49:53.476Z,76.30
2019-03-05T20:52:22.875Z,77.01
2019-03-05T20:54:53.851Z,76.98
2019-03-05T20:57:23.533Z,76.70
2019-03-05T20:59:52.894Z,76.55
2019-03-05T21:02:22.797Z,76.35
2019-03-05T21:04:52.153Z,78.89
2019-03-05T21:07:21.868Z,80.94
2019-03-05T21:09:51.565Z,75.54
2019-03-05T21:12:20.959Z,75.54
2019-03-05T21:14:51.915Z,75.48
2019-03-05T21:17:21.581Z,75.85
2019-03-05T21:19:50.943Z,76.22
2019-03-05T21:22:20.596Z,76.65
2019-03-05T21:24:50.301Z,77.00
2019-03-05T21:27:19.946Z,77.36
2019-03-05T21:29:49.612Z,77.63
2019-03-05T21:32:26.100Z,77.75
2019-03-05T21:34:57.164Z,77.89
2019-03-05T21:37:39.831Z,77.98
2019-03-05T21:40:29.622Z,78.13
2019-03-05T21:42:59.049Z,78.51
2019-03-05T21:45:41.385Z,78.67
2019-03-05T21:48:23.402Z,78.87
2019-03-05T21:51:05.013Z,78.87
2019-03-05T21:53:46.856Z,78.85
2019-03-05T21:56:29.307Z,79.18
2019-03-05T21:59:10.886Z,79.39
2019-03-05T22:01:40.266Z,79.45
2019-03-05T22:04:09.730Z,79.68
2019-03-05T22:06:39.108Z,79.96
2019-03-05T22:09:08.760Z,80.28
2019-03-05T22:11:39.926Z,80.37
2019-03-05T22:14:09.289Z,80.56
2019-03-05T22:16:38.858Z,80.51
2019-03-05T22:19:08.512Z,80.55
2019-03-05T22:21:38.216Z,80.45
2019-03-05T22:24:07.919Z,80.39
2019-03-05T22:26:37.318Z,80.35
2019-03-05T22:31:47.197Z,80.30
2019-03-05T22:34:17.422Z,80.20
2019-03-05T22:36:47.004Z,80.22
2019-03-05T22:39:16.362Z,80.22
2019-03-05T22:41:56.016Z,80.23
2019-03-05T22:44:25.821Z,80.23
2019-03-05T22:46:55.498Z,80.10
2019-03-05T22:49:25.259Z,80.18
2019-03-05T22:51:54.966Z,80.47
2019-03-05T22:54:24.529Z,80.47
2019-03-05T22:56:55.352Z,80.46
2019-03-05T22:59:43.436Z,80.49
2019-03-05T23:04:53.086Z,80.58
2019-03-05T23:07:22.761Z,80.71
2019-03-05T23:10:02.338Z,81.30
2019-03-05T23:12:33.371Z,81.30
2019-03-05T23:18:02.913Z,81.22
2019-03-05T23:20:34.059Z,81.46
2019-03-05T23:23:05.589Z,81.41
2019-03-05T23:25:35.229Z,81.29
2019-03-05T23:28:44.630Z,81.30
2019-03-05T23:31:15.457Z,81.42
2019-03-05T23:33:45.152Z,81.63
2019-03-05T23:36:15.467Z,81.87
2019-03-05T23:38:45.156Z,82.03
2019-03-05T23:41:15.486Z,82.25
2019-03-05T23:43:45.149Z,82.45
2019-03-05T23:46:15.613Z,82.71
2019-03-05T23:48:45.122Z,82.81
2019-03-05T23:51:15.454Z,82.95
2019-03-05T23:53:45.154Z,82.98
2019-03-05T23:56:15.485Z,83.11
2019-03-05T23:58:45.129Z,83.31
